Time;durP1;ratioP1;P1;durP2;ratioP2;P2;SDS_P1;SDS_P2;PMS_P1;PMS_P2;Temp;Humidity;BMP_temperature;BMP_pressure;BME280_temperature;BME280_humidity;BME280_pressure;Samples;Min_cycle;Max_cycle;Signal;HPM_P1;HPM_P2
2023/10/20 00:27:09;;;;;;;;;;;;;;;14.93;100.00;97067.00;1090240;46;1976;-82
2023/10/20 00:28:13;;;;;;;;;;;;;;;14.96;100.00;97060.28;1087726;47;1091;-81
2023/10/20 00:29:19;;;;;;;;;;;;;;;14.99;100.00;97062.50;1087878;54;1039;-80
2023/10/20 00:30:20;;;;;;;;;;;;;;;14.98;99.83;97058.97;1087275;46;1175;-80
2023/10/20 00:31:23;;;;;;;;;;;;;;;15.00;99.86;97064.13;1086077;47;1044;-80
2023/10/20 00:32:24;;;;;;;;;;;;;;;15.03;99.57;97058.25;1086083;47;1038;-79
2023/10/20 00:33:27;;;;;;;;;;;;;;;15.04;99.38;97057.19;1086153;47;1866;-79
2023/10/20 00:34:28;;;;;;;;;;;;;;;15.07;99.20;97061.25;1086338;54;1183;-79
2023/10/20 00:35:32;;;;;;;;;;;;;;;15.04;98.95;97056.38;1087126;51;1033;-81
2023/10/20 00:36:33;;;;;;;;;;;;;;;15.01;99.64;97060.38;1086665;54;1355;-79
2023/10/20 00:37:35;;;;;;;;;;;;;;;15.03;99.58;97055.56;1087057;47;1647;-80
2023/10/20 00:38:38;;;;;;;;;;;;;;;15.05;98.94;97058.81;1085779;47;1051;-79
2023/10/20 00:39:40;;;;;;;;;;;;;;;15.03;98.97;97050.19;1086502;47;1028;-80
2023/10/20 00:40:52;;;;;;;;;;;;;;;15.04;98.91;97051.81;1087031;54;1124;-80
2023/10/20 00:41:53;;;;;;;;;;;;;;;15.04;98.80;97056.38;1087334;54;1028;-78
2023/10/20 00:42:57;;;;;;;;;;;;;;;15.05;98.65;97056.13;1087352;47;1016;-78
2023/10/20 00:44:00;;;;;;;;;;;;;;;15.07;98.62;97048.63;1087382;46;1038;-78
2023/10/20 00:45:04;;;;;;;;;;;;;;;15.10;98.91;97052.69;1087427;47;1129;-78
2023/10/20 00:46:04;;;;;;;;;;;;;;;15.10;98.50;97050.84;1087250;47;1313;-78
2023/10/20 00:47:09;;;;;;;;;;;;;;;15.09;98.69;97051.06;1087452;54;963;-78
2023/10/20 00:48:11;;;;;;;;;;;;;;;15.07;98.64;97048.63;1087453;54;1012;-78
2023/10/20 00:49:15;;;;;;;;;;;;;;;15.07;98.45;97045.94;1087339;47;1038;-79
2023/10/20 00:50:16;;;;;;;;;;;;;;;15.08;98.27;97041.38;1087429;46;1025;-79
2023/10/20 00:51:19;;;;;;;;;;;;;;;15.04;99.11;97042.94;1087383;54;1021;-78
2023/10/20 00:52:21;;;;;;;;;;;;;;;15.00;99.81;97031.88;1087424;47;910;-79
2023/10/20 00:53:25;;;;;;;;;;;;;;;15.02;99.62;97032.41;1087522;54;1842;-79
2023/10/20 00:54:27;;;;;;;;;;;;;;;15.03;99.14;97036.72;1087459;54;993;-78
2023/10/20 00:55:31;;;;;;;;;;;;;;;15.05;99.33;97031.91;1087540;54;987;-78
2023/10/20 00:56:32;;;;;;;;;;;;;;;15.08;99.01;97035.97;1087436;47;971;-79
2023/10/20 00:57:36;;;;;;;;;;;;;;;15.09;98.76;97033.06;1087456;47;1007;-78
2023/10/20 00:58:37;;;;;;;;;;;;;;;15.08;98.77;97039.50;1087530;54;975;-78
2023/10/20 00:59:43;;;;;;;;;;;;;;;15.07;98.95;97043.25;1087518;54;926;-81
2023/10/20 01:00:44;;;;;;;;;;;;;;;15.08;99.00;97038.69;1087519;54;1346;-79
2023/10/20 01:01:47;;;;;;;;;;;;;;;15.05;99.45;97034.63;1087671;54;1007;-79
2023/10/20 01:02:47;;;;;;;;;;;;;;;15.06;99.04;97033.56;1087535;47;1005;-79
2023/10/20 01:03:51;;;;;;;;;;;;;;;15.02;99.48;97016.25;1087666;47;886;-79
2023/10/20 01:04:52;;;;;;;;;;;;;;;14.98;99.78;97025.91;1087605;54;1188;-79
2023/10/20 01:05:55;;;;;;;;;;;;;;;14.91;100.00;97020.69;1087343;54;1416;-79
2023/10/20 01:06:57;;;;;;;;;;;;;;;14.90;100.00;97029.81;1087447;47;983;-78
2023/10/20 01:08:00;;;;;;;;;;;;;;;14.87;100.00;97013.38;1087605;47;891;-79
2023/10/20 01:09:01;;;;;;;;;;;;;;;14.87;100.00;97005.28;1087532;47;1011;-79
2023/10/20 01:10:05;;;;;;;;;;;;;;;14.88;100.00;97010.41;1087548;47;947;-79
2023/10/20 01:11:06;;;;;;;;;;;;;;;14.86;100.00;97012.56;1087413;47;1045;-79
2023/10/20 01:12:09;;;;;;;;;;;;;;;14.85;99.85;97010.94;1087501;54;950;-77
2023/10/20 01:13:10;;;;;;;;;;;;;;;14.84;100.00;97014.69;1087433;54;1867;-78
2023/10/20 01:14:13;;;;;;;;;;;;;;;14.84;99.83;97016.53;1087434;47;969;-79
2023/10/20 01:15:16;;;;;;;;;;;;;;;14.85;99.57;97007.41;1087455;54;955;-79
2023/10/20 01:16:19;;;;;;;;;;;;;;;14.81;100.00;97004.41;1087414;47;1215;-79
2023/10/20 01:17:20;;;;;;;;;;;;;;;14.72;100.00;97001.34;1087415;47;951;-80
2023/10/20 01:18:24;;;;;;;;;;;;;;;14.71;100.00;97005.09;1087424;47;905;-79
2023/10/20 01:19:27;;;;;;;;;;;;;;;14.78;100.00;97000.34;1087376;46;974;-79
2023/10/20 01:20:31;;;;;;;;;;;;;;;14.74;100.00;97001.09;1087434;54;974;-78
2023/10/20 01:21:31;;;;;;;;;;;;;;;14.72;100.00;97006.72;1087392;54;947;-79
2023/10/20 01:22:35;;;;;;;;;;;;;;;14.70;100.00;97010.69;1087412;47;929;-78
2023/10/20 01:23:48;;;;;;;;;;;;;;;14.66;100.00;97004.97;1087504;46;981;-79
2023/10/20 01:24:54;;;;;;;;;;;;;;;14.63;100.00;97008.16;1087450;54;888;-80
2023/10/20 01:25:56;;;;;;;;;;;;;;;14.62;100.00;97006.53;1087397;54;1294;-80
2023/10/20 01:26:59;;;;;;;;;;;;;;;14.59;100.00;97007.84;1087486;47;908;-79
2023/10/20 01:28:00;;;;;;;;;;;;;;;14.59;100.00;97005.16;1087462;47;950;-80
2023/10/20 01:29:09;;;;;;;;;;;;;;;14.64;100.00;96993.66;1087536;54;985;-79
2023/10/20 01:30:10;;;;;;;;;;;;;;;14.58;100.00;96989.25;1087375;47;975;-80
2023/10/20 01:31:14;;;;;;;;;;;;;;;14.57;100.00;96980.38;1087497;54;1144;-79
2023/10/20 01:32:14;;;;;;;;;;;;;;;14.57;100.00;96979.53;1087532;54;968;-80
2023/10/20 01:33:15;;;;;;;;;;;;;;;14.56;100.00;96980.59;1087476;54;1853;-80
2023/10/20 01:34:18;;;;;;;;;;;;;;;14.58;100.00;96978.50;1087589;54;941;-79
2023/10/20 01:35:19;;;;;;;;;;;;;;;14.59;100.00;96974.75;1087458;54;967;-78
2023/10/20 01:36:40;;;;;;;;;;;;;;;;;;;;;
2023/10/20 01:37:53;;;;;;;;;;;;;;;14.54;100.00;96972.00;1087775;47;1026;-79
2023/10/20 01:38:56;;;;;;;;;;;;;;;14.53;100.00;96973.84;1087713;47;990;-80
2023/10/20 01:40:12;;;;;;;;;;;;;;;14.51;100.00;96971.41;1087767;47;1009;-81
2023/10/20 01:41:18;;;;;;;;;;;;;;;14.54;100.00;96969.31;1087442;54;985;-80
2023/10/20 01:42:18;;;;;;;;;;;;;;;14.59;100.00;96969.38;1087428;47;974;-79
2023/10/20 01:43:22;;;;;;;;;;;;;;;14.63;100.00;96975.91;1087518;47;955;-80
2023/10/20 01:44:28;;;;;;;;;;;;;;;14.67;100.00;96977.03;1087550;54;935;-79
2023/10/20 01:45:47;;;;;;;;;;;;;;;14.72;100.00;96970.94;1087250;54;1364;-80
2023/10/20 01:46:49;;;;;;;;;;;;;;;14.72;99.83;96971.75;1087566;47;997;-79
2023/10/20 01:47:52;;;;;;;;;;;;;;;14.74;99.56;96961.56;1087314;54;975;-79
2023/10/20 01:48:53;;;;;;;;;;;;;;;14.68;99.76;96957.16;1087704;54;994;-80
2023/10/20 01:59:08;;;;;;;;;;;;;;;14.31;100.00;96912.78;1087164;47;909;-79
2023/10/20 02:00:13;;;;;;;;;;;;;;;14.32;100.00;96906.34;1087263;47;903;-79
2023/10/20 02:01:18;;;;;;;;;;;;;;;14.37;100.00;96897.56;1087374;54;1111;-80
2023/10/20 02:03:11;;;;;;;;;;;;;;;14.36;100.00;96893.25;1087833;47;981;-81
2023/10/20 02:04:03;;;;;;;;;;;;;;;14.42;100.00;96894.97;1087356;47;979;-78
2023/10/20 02:06:50;;;;;;;;;;;;;;;14.53;100.00;96887.84;1087568;47;1479;-81
2023/10/20 02:07:53;;;;;;;;;;;;;;;14.57;100.00;96886.31;1087535;54;1110;-80
2023/10/20 02:09:04;;;;;;;;;;;;;;;14.57;100.00;96883.63;1087799;54;1968;-80
2023/10/20 02:10:06;;;;;;;;;;;;;;;14.61;100.00;96873.97;1087294;47;1420;-79
2023/10/20 02:11:13;;;;;;;;;;;;;;;14.62;100.00;96866.75;1087651;47;1485;-80
2023/10/20 02:12:15;;;;;;;;;;;;;;;14.64;100.00;96872.69;1087684;47;1292;-80
2023/10/20 02:19:42;;;;;;;;;;;;;;;14.38;100.00;96839.28;1088452;47;975;-81
2023/10/20 02:21:12;;;;;;;;;;;;;;;14.34;100.00;96842.44;1088367;47;2063;-81
2023/10/20 02:22:52;;;;;;;;;;;;;;;14.33;100.00;96830.06;1088319;47;1036;-80
2023/10/20 02:24:10;;;;;;;;;;;;;;;14.29;100.00;96820.88;1088220;54;964;-78
2023/10/20 02:25:27;;;;;;;;;;;;;;;14.31;100.00;96817.94;1088396;47;1290;-79
2023/10/20 02:26:31;;;;;;;;;;;;;;;14.34;100.00;96820.94;1088290;47;1390;-78
2023/10/20 02:27:42;;;;;;;;;;;;;;;14.34;100.00;96817.47;1088306;47;2048;-78
2023/10/20 02:28:52;;;;;;;;;;;;;;;14.39;100.00;96814.03;1088295;54;911;-79
2023/10/20 02:30:03;;;;;;;;;;;;;;;14.43;100.00;96815.13;1088365;54;1386;-79
2023/10/20 02:31:18;;;;;;;;;;;;;;;14.47;100.00;96806.34;1088227;47;1334;-78
2023/10/20 02:32:34;;;;;;;;;;;;;;;14.51;100.00;96810.16;1088524;47;1047;-79
2023/10/20 02:33:51;;;;;;;;;;;;;;;14.53;100.00;96809.09;1088399;54;1854;-80
2023/10/20 04:05:39;;;;;;;;;;;;;;;14.59;98.21;96669.16;1086993;54;1916;-82
2023/10/20 04:06:52;;;;;;;;;;;;;;;14.55;98.88;96661.84;1088195;47;930;-81
2023/10/20 04:08:06;;;;;;;;;;;;;;;;;;;;;
2023/10/20 04:14:46;;;;;;;;;;;;;;;14.41;99.26;96635.38;1088186;47;1872;-81
2023/10/20 04:16:18;;;;;;;;;;;;;;;14.38;100.00;96635.84;1088032;46;1388;-81
2023/10/20 04:22:02;;;;;;;;;;;;;;;14.30;100.00;96622.88;1088438;46;825;-82
2023/10/20 04:23:25;;;;;;;;;;;;;;;14.26;100.00;96614.50;1088365;47;999;-82
2023/10/20 15:43:33;;;;;;;;;;;;;;;16.60;79.00;96815.25;1088442;54;911;-77
2023/10/20 15:49:00;;;;;;;;;;;;;;;16.60;79.04;96817.94;1088571;47;922;-78
2023/10/20 15:50:03;;;;;;;;;;;;;;;16.62;78.83;96815.81;1088391;47;1043;-76
2023/10/20 15:52:46;;;;;;;;;;;;;;;16.61;78.93;96792.59;1088307;51;915;-78
2023/10/20 15:53:52;;;;;;;;;;;;;;;16.58;78.80;96793.13;1088301;54;962;-77
2023/10/20 15:55:03;;;;;;;;;;;;;;;16.59;79.13;96792.06;1088190;47;1852;-80
2023/10/20 15:56:05;;;;;;;;;;;;;;;16.59;79.11;96793.91;1088371;54;1236;-77
2023/10/20 15:57:12;;;;;;;;;;;;;;;16.57;79.22;96804.19;1088510;54;1074;-77
2023/10/20 15:58:15;;;;;;;;;;;;;;;16.59;78.95;96802.00;1088681;54;1087;-77
2023/10/20 15:59:19;;;;;;;;;;;;;;;16.55;79.16;96809.03;1088384;47;949;-78
2023/10/20 16:00:20;;;;;;;;;;;;;;;16.56;79.07;96818.72;1088684;54;1045;-81
2023/10/20 16:01:28;;;;;;;;;;;;;;;16.52;79.41;96826.53;1088813;54;934;-81
2023/10/20 16:02:32;;;;;;;;;;;;;;;16.54;79.12;96821.66;1088716;48;978;-79
2023/10/20 16:03:33;;;;;;;;;;;;;;;16.56;79.21;96827.63;1088707;54;979;-78
2023/10/20 16:04:41;;;;;;;;;;;;;;;16.56;79.00;96826.81;1088891;54;1026;-80
2023/10/20 16:05:58;;;;;;;;;;;;;;;16.54;79.08;96829.75;1088748;54;1326;-78
2023/10/20 16:07:02;;;;;;;;;;;;;;;16.48;78.37;96825.44;1088586;47;981;-77
2023/10/20 16:08:17;;;;;;;;;;;;;;;16.47;78.49;96823.81;1088922;54;1306;-79
2023/10/20 16:09:21;;;;;;;;;;;;;;;16.49;78.10;96817.06;1088800;47;1271;-79
2023/10/20 16:10:23;;;;;;;;;;;;;;;16.52;78.16;96810.38;1088644;54;974;-77
2023/10/20 16:11:27;;;;;;;;;;;;;;;16.54;77.89;96818.97;1088620;47;1450;-77
2023/10/20 16:12:28;;;;;;;;;;;;;;;16.53;78.14;96820.88;1088646;54;1005;-77
2023/10/20 16:13:31;;;;;;;;;;;;;;;16.56;78.06;96827.63;1088640;47;987;-77
2023/10/20 16:14:32;;;;;;;;;;;;;;;16.55;78.35;96831.38;1088586;54;1903;-77
2023/10/20 16:15:36;;;;;;;;;;;;;;;16.55;78.18;96831.38;1088770;47;990;-77
2023/10/20 16:16:37;;;;;;;;;;;;;;;16.56;78.42;96838.41;1088600;54;1060;-77
2023/10/20 16:17:44;;;;;;;;;;;;;;;16.57;78.23;96848.13;1088653;54;932;-76
2023/10/20 16:18:47;;;;;;;;;;;;;;;16.56;78.53;96854.59;1088715;54;1066;-77
2023/10/20 16:19:52;;;;;;;;;;;;;;;16.55;78.54;96863.75;1088565;47;1099;-77
2023/10/20 16:20:54;;;;;;;;;;;;;;;16.50;78.15;96864.53;1088501;47;1043;-77
2023/10/20 16:21:58;;;;;;;;;;;;;;;16.47;78.03;96865.06;1088490;47;1504;-77
2023/10/20 16:22:59;;;;;;;;;;;;;;;16.40;78.10;96867.16;1088645;47;989;-77
2023/10/20 16:24:03;;;;;;;;;;;;;;;16.36;78.31;96882.25;1088672;54;1032;-77
2023/10/20 16:25:05;;;;;;;;;;;;;;;16.36;78.45;96880.34;1088645;47;1291;-77
2023/10/20 16:26:21;;;;;;;;;;;;;;;16.41;78.96;96878.78;1088806;54;1271;-79
2023/10/20 16:27:23;;;;;;;;;;;;;;;16.36;78.59;96866.88;1088395;54;1178;-76
2023/10/20 16:28:28;;;;;;;;;;;;;;;16.37;78.48;96852.31;1088354;54;1225;-78
2023/10/20 16:29:29;;;;;;;;;;;;;;;16.35;77.93;96850.97;1088492;54;1021;-78
2023/10/20 16:30:34;;;;;;;;;;;;;;;16.34;78.00;96855.53;1088630;54;942;-78
2023/10/20 16:31:35;;;;;;;;;;;;;;;16.34;78.47;96844.75;1088609;54;1000;-77
2023/10/20 16:32:40;;;;;;;;;;;;;;;16.35;78.12;96838.28;1088514;47;1040;-78
2023/10/20 16:33:45;;;;;;;;;;;;;;;16.34;78.56;96828.56;1088485;54;924;-78
2023/10/20 16:34:50;;;;;;;;;;;;;;;16.34;78.50;96836.66;1087945;47;1834;-76
2023/10/20 16:35:53;;;;;;;;;;;;;;;16.31;77.95;96837.19;1088403;54;1337;-77
2023/10/20 16:36:57;;;;;;;;;;;;;;;16.31;78.57;96853.38;1088526;47;1017;-77
2023/10/20 16:37:58;;;;;;;;;;;;;;;16.30;78.15;96853.63;1088539;47;1528;-77
2023/10/20 16:39:00;;;;;;;;;;;;;;;16.28;77.85;96855.78;1088725;54;1060;-79
2023/10/20 16:40:05;;;;;;;;;;;;;;;16.30;77.72;96862.53;1088580;54;1042;-77
2023/10/20 16:41:07;;;;;;;;;;;;;;;16.28;77.91;96867.34;1088727;47;939;-77
2023/10/20 16:42:10;;;;;;;;;;;;;;;16.30;77.58;96867.09;1088471;54;1061;-78
2023/10/20 16:43:13;;;;;;;;;;;;;;;16.27;77.28;96862.25;1088694;47;969;-78
2023/10/20 16:44:17;;;;;;;;;;;;;;;16.25;77.47;96859.78;1088578;54;1110;-77
2023/10/20 16:45:18;;;;;;;;;;;;;;;16.26;77.60;96864.09;1088613;47;1005;-77
2023/10/20 16:46:22;;;;;;;;;;;;;;;16.25;77.42;96864.38;1088535;54;1221;-78
2023/10/20 16:47:23;;;;;;;;;;;;;;;16.21;76.96;96864.88;1088532;54;1160;-79
2023/10/20 16:48:27;;;;;;;;;;;;;;;16.18;77.25;96865.41;1088520;47;1039;-78
2023/10/20 16:49:31;;;;;;;;;;;;;;;16.16;77.38;96867.56;1088645;54;1044;-79
2023/10/20 16:50:35;;;;;;;;;;;;;;;16.12;77.01;96871.81;1088683;54;1057;-78
2023/10/20 16:51:37;;;;;;;;;;;;;;;16.06;76.87;96879.06;1088594;54;1051;-77
2023/10/20 16:52:42;;;;;;;;;;;;;;;16.09;77.28;96893.09;1088239;54;1211;-76
2023/10/20 16:53:43;;;;;;;;;;;;;;;16.05;77.16;96896.31;1088324;54;983;-78
2023/10/20 16:54:50;;;;;;;;;;;;;;;15.98;76.40;96886.81;1088418;47;1839;-77
2023/10/20 16:55:54;;;;;;;;;;;;;;;15.97;76.77;96890.56;1088416;47;1423;-77
2023/10/20 16:56:56;;;;;;;;;;;;;;;15.97;76.94;96891.38;1088469;46;1495;-78
2023/10/20 16:57:59;;;;;;;;;;;;;;;15.95;76.25;96895.41;1088683;54;1106;-78
2023/10/20 16:59:03;;;;;;;;;;;;;;;15.90;76.24;96885.41;1088560;54;1015;-77
2023/10/20 17:00:07;;;;;;;;;;;;;;;15.88;76.08;96898.28;1088483;47;1004;-78
2023/10/20 17:01:08;;;;;;;;;;;;;;;15.89;76.57;96899.91;1087967;47;1020;-77
2023/10/20 17:02:11;;;;;;;;;;;;;;;15.86;76.48;96903.16;1087709;54;1046;-78
2023/10/20 17:03:12;;;;;;;;;;;;;;;15.87;76.01;96902.09;1087816;54;930;-78
2023/10/20 17:04:15;;;;;;;;;;;;;;;15.88;76.55;96909.06;1087807;54;1000;-78
2023/10/20 17:05:18;;;;;;;;;;;;;;;15.85;76.27;96898.81;1088271;54;1053;-77
2023/10/20 17:06:22;;;;;;;;;;;;;;;15.87;75.89;96896.69;1087852;46;1234;-77
2023/10/20 17:07:22;;;;;;;;;;;;;;;15.81;75.21;96893.13;1087868;54;1002;-77
2023/10/20 17:08:25;;;;;;;;;;;;;;;15.82;75.93;96900.09;1088008;54;1061;-76
2023/10/20 17:09:30;;;;;;;;;;;;;;;15.81;75.91;96908.44;1087990;54;988;-77
2023/10/20 17:10:33;;;;;;;;;;;;;;;15.75;76.22;96924.56;1087974;47;1402;-77
2023/10/20 17:11:36;;;;;;;;;;;;;;;15.75;76.16;96921.88;1088000;47;1017;-79
2023/10/20 17:12:40;;;;;;;;;;;;;;;15.79;75.70;96915.97;1087987;54;1029;-76
2023/10/20 17:13:40;;;;;;;;;;;;;;;15.75;75.65;96916.50;1087921;54;1438;-76
2023/10/20 17:14:44;;;;;;;;;;;;;;;15.75;75.87;96908.41;1087942;47;1852;-75
2023/10/20 17:15:45;;;;;;;;;;;;;;;15.80;75.63;96910.34;1087832;54;1314;-77
2023/10/20 17:16:48;;;;;;;;;;;;;;;15.80;75.56;96913.03;1087619;54;1041;-77
2023/10/20 17:17:49;;;;;;;;;;;;;;;15.79;75.30;96913.25;1087657;46;1225;-76
2023/10/20 17:18:53;;;;;;;;;;;;;;;15.79;75.35;96907.88;1087849;54;1022;-76
2023/10/20 17:19:54;;;;;;;;;;;;;;;15.76;75.61;96911.91;1087957;47;985;-76
2023/10/20 17:21:06;;;;;;;;;;;;;;;15.73;74.99;96918.63;1087936;54;1191;-77
2023/10/20 17:22:07;;;;;;;;;;;;;;;15.73;74.84;96912.41;1087933;54;1051;-77
2023/10/20 17:23:12;;;;;;;;;;;;;;;15.65;75.26;96910.16;1087961;47;1013;-77
2023/10/20 17:24:14;;;;;;;;;;;;;;;15.66;75.19;96927.94;1088011;54;1060;-76
2023/10/20 17:25:17;;;;;;;;;;;;;;;15.65;75.26;96926.31;1087993;47;989;-77
2023/10/20 17:26:18;;;;;;;;;;;;;;;15.55;75.51;96927.03;1088084;54;1326;-78
2023/10/20 17:27:19;;;;;;;;;;;;;;;15.55;75.29;96924.34;1087821;54;1149;-76
2023/10/20 17:28:22;;;;;;;;;;;;;;;15.55;75.90;96921.66;1087916;47;1405;-78
2023/10/20 17:29:23;;;;;;;;;;;;;;;15.53;75.48;96923.78;1087930;47;1469;-77
2023/10/20 17:30:28;;;;;;;;;;;;;;;15.54;75.75;96933.50;1087923;54;978;-76
2023/10/20 17:31:29;;;;;;;;;;;;;;;15.54;75.58;96928.91;1087921;54;1069;-76
2023/10/20 17:32:33;;;;;;;;;;;;;;;15.54;75.28;96931.59;1087935;47;1050;-77
2023/10/20 17:33:34;;;;;;;;;;;;;;;15.52;75.74;96927.53;1087972;47;1014;-77
2023/10/20 17:34:39;;;;;;;;;;;;;;;15.47;75.48;96925.59;1088040;47;1856;-78
2023/10/20 17:35:39;;;;;;;;;;;;;;;15.46;74.87;96920.50;1088048;54;1258;-79
2023/10/20 17:36:46;;;;;;;;;;;;;;;15.44;75.27;96918.84;1088249;54;940;-78
2023/10/20 17:37:47;;;;;;;;;;;;;;;15.43;75.17;96914.53;1088101;54;1059;-79
2023/10/20 17:38:50;;;;;;;;;;;;;;;15.46;75.36;96920.50;1088111;54;952;-78
2023/10/20 17:39:52;;;;;;;;;;;;;;;15.44;74.58;96908.09;1088413;54;911;-80
2023/10/20 17:40:54;;;;;;;;;;;;;;;15.48;75.09;96910.28;1088597;54;1082;-80
2023/10/20 17:41:59;;;;;;;;;;;;;;;15.50;74.92;96924.28;1088384;47;1486;-79
2023/10/20 17:43:00;;;;;;;;;;;;;;;15.49;75.09;96925.38;1088296;47;982;-78
2023/10/20 17:44:01;;;;;;;;;;;;;;;15.47;75.08;96917.53;1088359;47;1034;-79
2023/10/20 17:45:05;;;;;;;;;;;;;;;15.47;74.89;96924.81;1088445;54;918;-79
2023/10/20 17:46:06;;;;;;;;;;;;;;;15.47;74.90;96919.44;1088465;47;1411;-80
2023/10/20 17:47:10;;;;;;;;;;;;;;;15.47;74.90;96908.66;1088356;54;1046;-79
2023/10/20 17:48:11;;;;;;;;;;;;;;;15.47;74.58;96909.47;1088403;47;998;-79
2023/10/20 17:49:14;;;;;;;;;;;;;;;15.47;74.70;96919.44;1088450;54;1046;-80
2023/10/20 17:50:15;;;;;;;;;;;;;;;15.49;74.64;96920.00;1088378;54;947;-80
2023/10/20 17:51:20;;;;;;;;;;;;;;;15.42;74.51;96920.97;1088244;47;1450;-80
2023/10/20 17:52:24;;;;;;;;;;;;;;;15.46;74.81;96928.56;1088238;54;972;-79
2023/10/20 17:53:27;;;;;;;;;;;;;;;15.42;75.08;96926.38;1088349;54;996;-79
2023/10/20 17:54:29;;;;;;;;;;;;;;;15.41;74.74;96938.19;1088216;54;981;-79
2023/10/20 17:55:32;;;;;;;;;;;;;;;15.41;74.92;96938.19;1088262;54;1842;-80
2023/10/20 17:56:34;;;;;;;;;;;;;;;15.38;75.10;96932.50;1088178;47;1227;-79
2023/10/20 17:57:38;;;;;;;;;;;;;;;15.40;75.29;96938.47;1088216;54;982;-79
2023/10/20 17:58:39;;;;;;;;;;;;;;;15.35;75.00;96941.91;1088079;47;1046;-80
2023/10/20 17:59:45;;;;;;;;;;;;;;;15.34;75.22;96937.59;1088159;47;986;-80
2023/10/20 18:00:46;;;;;;;;;;;;;;;15.33;75.60;96949.41;1088128;54;1028;-80
2023/10/20 18:01:50;;;;;;;;;;;;;;;15.33;75.64;96938.66;1088177;54;1047;-79
2023/10/20 18:02:50;;;;;;;;;;;;;;;15.34;75.52;96934.09;1087974;47;1517;-79
2023/10/20 18:03:54;;;;;;;;;;;;;;;15.31;75.85;96932.69;1088000;47;1489;-79
2023/10/20 18:04:54;;;;;;;;;;;;;;;15.31;75.86;96934.59;1088136;47;1015;-80
2023/10/20 18:05:57;;;;;;;;;;;;;;;15.32;75.90;96939.69;1088114;54;1281;-80
2023/10/20 18:06:58;;;;;;;;;;;;;;;15.28;75.87;96936.69;1088003;47;1093;-79
2023/10/20 18:08:04;;;;;;;;;;;;;;;15.26;75.87;96941.50;1088024;47;1041;-78
2023/10/20 18:09:05;;;;;;;;;;;;;;;15.24;76.00;96932.06;1087925;54;963;-79
2023/10/20 18:10:08;;;;;;;;;;;;;;;15.22;76.39;96934.19;1088000;47;1460;-79
2023/10/20 18:11:10;;;;;;;;;;;;;;;15.21;76.41;96940.66;1088074;54;938;-80
2023/10/20 18:12:13;;;;;;;;;;;;;;;15.24;76.74;96942.84;1088027;54;1012;-78
2023/10/20 18:13:13;;;;;;;;;;;;;;;15.21;76.95;96937.97;1087908;54;1030;-79
2023/10/20 18:14:17;;;;;;;;;;;;;;;15.24;76.68;96946.34;1087961;54;996;-79
2023/10/20 18:15:18;;;;;;;;;;;;;;;15.22;76.96;96943.09;1088017;54;1853;-79
2023/10/20 18:16:22;;;;;;;;;;;;;;;15.19;77.35;96943.59;1087974;54;1279;-78
2023/10/20 18:17:23;;;;;;;;;;;;;;;15.18;76.95;96954.63;1087945;47;1522;-79
2023/10/20 18:18:24;;;;;;;;;;;;;;;15.19;77.39;96961.63;1087871;47;1389;-78
2023/10/20 18:19:27;;;;;;;;;;;;;;;15.18;77.58;96976.13;1087992;54;998;-80
2023/10/20 18:20:28;;;;;;;;;;;;;;;15.18;77.31;96968.06;1087995;47;1481;-79
2023/10/20 18:21:34;;;;;;;;;;;;;;;15.17;77.57;96977.19;1087989;54;979;-79
2023/10/20 18:22:34;;;;;;;;;;;;;;;15.11;77.88;96981.69;1087951;54;1023;-82
2023/10/20 18:23:41;;;;;;;;;;;;;;;15.09;78.13;96976.56;1087964;47;994;-78
2023/10/20 18:24:41;;;;;;;;;;;;;;;15.07;78.05;96977.88;1087860;54;1043;-79
2023/10/20 18:25:45;;;;;;;;;;;;;;;15.05;77.81;96983.50;1087927;54;1327;-78
2023/10/20 18:26:46;;;;;;;;;;;;;;;15.07;77.95;96977.88;1087995;47;986;-79
2023/10/20 18:27:49;;;;;;;;;;;;;;;15.08;77.75;96977.63;1087828;47;987;-78
2023/10/20 18:28:50;;;;;;;;;;;;;;;15.04;77.32;96978.38;1088285;54;951;-78
2023/10/20 18:29:50;;;;;;;;;;;;;;;15.07;77.17;96980.56;1088711;54;1018;-80
2023/10/20 18:30:54;;;;;;;;;;;;;;;15.09;76.97;96990.03;1088848;54;1066;-78
2023/10/20 18:31:54;;;;;;;;;;;;;;;15.11;77.24;96987.06;1088978;54;1091;-78
2023/10/20 18:32:57;;;;;;;;;;;;;;;15.08;77.04;96980.31;1088884;54;957;-79
2023/10/20 18:34:02;;;;;;;;;;;;;;;15.09;76.76;96981.13;1088909;54;1002;-79
2023/10/20 18:35:05;;;;;;;;;;;;;;;15.12;76.29;96981.44;1088903;47;1836;-81
2023/10/20 18:36:06;;;;;;;;;;;;;;;15.13;75.88;96982.25;1088910;54;1268;-80
2023/10/20 18:37:09;;;;;;;;;;;;;;;15.14;76.09;96981.22;1089040;54;976;-79
2023/10/20 18:38:10;;;;;;;;;;;;;;;15.18;76.09;96976.13;1088935;47;1265;-80
2023/10/20 18:39:16;;;;;;;;;;;;;;;15.20;76.01;96982.09;1089002;47;1003;-79
2023/10/20 18:40:17;;;;;;;;;;;;;;;15.17;75.83;96974.50;1089163;54;1012;-80
2023/10/20 18:41:19;;;;;;;;;;;;;;;15.17;75.48;96979.88;1088915;54;1194;-79
2023/10/20 18:42:22;;;;;;;;;;;;;;;15.16;75.49;96981.75;1088909;47;1003;-79
2023/10/20 18:43:23;;;;;;;;;;;;;;;15.15;75.78;96982.00;1089036;54;980;-80
2023/10/20 18:44:26;;;;;;;;;;;;;;;15.16;75.48;96973.69;1088899;54;1026;-78
2023/10/20 18:45:26;;;;;;;;;;;;;;;15.17;75.82;96964.53;1088842;54;1083;-80
2023/10/20 18:46:32;;;;;;;;;;;;;;;15.16;75.51;96972.88;1088907;47;1148;-79
2023/10/20 18:47:34;;;;;;;;;;;;;;;15.18;75.50;96963.47;1088837;54;1018;-80
2023/10/20 18:48:38;;;;;;;;;;;;;;;15.19;75.80;96969.69;1088877;54;1157;-79
2023/10/20 18:49:38;;;;;;;;;;;;;;;15.21;75.64;96964.88;1088899;54;1021;-79
2023/10/20 18:50:42;;;;;;;;;;;;;;;15.20;75.52;96968.63;1088464;47;1718;-78
2023/10/20 18:51:43;;;;;;;;;;;;;;;15.19;74.85;96967.00;1088795;47;951;-79
2023/10/20 18:52:46;;;;;;;;;;;;;;;15.18;75.29;96973.44;1088731;47;970;-79
2023/10/20 18:53:47;;;;;;;;;;;;;;;15.19;75.11;96970.50;1088582;47;1503;-79
2023/10/20 18:54:53;;;;;;;;;;;;;;;15.18;75.17;96965.38;1088518;46;1003;-80
2023/10/20 18:55:53;;;;;;;;;;;;;;;15.20;74.82;96966.75;1088420;47;1844;-78
2023/10/20 18:56:57;;;;;;;;;;;;;;;15.17;75.20;96975.31;1088467;54;1068;-79
2023/10/20 18:57:57;;;;;;;;;;;;;;;15.19;75.01;96967.00;1088453;47;998;-78
2023/10/20 18:59:00;;;;;;;;;;;;;;;15.21;74.86;96964.88;1088200;47;1352;-78
2023/10/20 19:00:01;;;;;;;;;;;;;;;15.15;74.91;96955.94;1088366;54;1080;-79
2023/10/20 19:01:02;;;;;;;;;;;;;;;15.15;74.78;96958.63;1088408;47;1013;-80
2023/10/20 19:02:06;;;;;;;;;;;;;;;15.19;75.03;96948.97;1088259;54;959;-78
2023/10/20 19:03:06;;;;;;;;;;;;;;;15.21;74.80;96954.13;1088209;54;947;-79
2023/10/20 19:04:09;;;;;;;;;;;;;;;15.20;74.84;96947.91;1088390;54;1034;-79
2023/10/20 19:05:11;;;;;;;;;;;;;;;15.23;74.56;96960.03;1088420;54;1014;-78
2023/10/20 19:06:15;;;;;;;;;;;;;;;15.24;74.43;96948.22;1088391;54;1240;-78
2023/10/20 19:07:16;;;;;;;;;;;;;;;15.24;74.77;96942.84;1088340;47;1482;-78
2023/10/20 19:08:19;;;;;;;;;;;;;;;15.27;74.64;96942.34;1088356;47;1041;-79
2023/10/20 19:09:20;;;;;;;;;;;;;;;15.28;74.68;96946.66;1088259;47;1366;-78
2023/10/20 19:10:26;;;;;;;;;;;;;;;15.24;74.56;96945.53;1088360;47;1479;-79
2023/10/20 19:11:26;;;;;;;;;;;;;;;15.26;74.35;96946.91;1088383;54;968;-78
2023/10/20 19:12:30;;;;;;;;;;;;;;;15.23;74.64;96941.22;1088338;54;1016;-79
2023/10/20 19:13:30;;;;;;;;;;;;;;;15.15;74.29;96950.56;1088326;47;1490;-79
2023/10/20 19:14:33;;;;;;;;;;;;;;;15.14;74.43;96954.31;1088242;47;1464;-79
2023/10/20 19:15:34;;;;;;;;;;;;;;;15.13;74.73;96948.09;1088239;47;1842;-79
2023/10/20 19:16:37;;;;;;;;;;;;;;;15.18;74.87;96954.63;1088243;54;1404;-79
2023/10/20 19:17:38;;;;;;;;;;;;;;;15.18;74.64;96954.63;1088313;54;1029;-78
2023/10/20 19:18:42;;;;;;;;;;;;;;;15.17;74.57;96958.38;1088133;54;1545;-77
2023/10/20 19:19:46;;;;;;;;;;;;;;;15.16;74.95;96951.34;1088087;54;1038;-77
2023/10/20 19:20:49;;;;;;;;;;;;;;;15.14;74.62;96954.31;1088098;54;1014;-77
2023/10/20 19:21:51;;;;;;;;;;;;;;;15.15;74.63;96957.78;1087948;54;1019;-78
2023/10/20 19:22:54;;;;;;;;;;;;;;;15.16;74.65;96959.44;1087935;54;943;-77
2023/10/20 19:23:55;;;;;;;;;;;;;;;15.16;74.64;96970.97;1088040;51;1011;-79
2023/10/20 19:24:58;;;;;;;;;;;;;;;15.14;74.43;96965.06;1088032;54;1041;-78
2023/10/20 19:26:04;;;;;;;;;;;;;;;15.13;74.66;96974.19;1087968;54;1371;-78
2023/10/20 19:27:07;;;;;;;;;;;;;;;15.11;74.54;96970.94;1087919;54;1247;-78
2023/10/20 19:28:08;;;;;;;;;;;;;;;15.16;74.55;96960.22;1087866;54;1017;-78
2023/10/20 19:29:11;;;;;;;;;;;;;;;15.16;74.22;96959.44;1087937;47;1316;-77